Evesham, New Jersey
Current Conditions -  °F | °C
As of 6:54 AM on Friday 24 Oct 2014 (Local Time) from KVAY Reporting Station
Clear Clear  
Wind Chill: 53°   Ceiling: Unl
Heat Index: 53°   Visibility: 10mi
Dew Point: 44°   Wind: 6mph
Humidity: 71%   Direction: 310°NW
Pressure: 29.83"   Gusts: NA
Location:  39.8786°N, 74.8969°W
Report Text: KVAY 241054Z AUTO 31005KT 10SM CLR 12/07 A2983 RMK AO2 SLP100 T01170067
Loading
Personal Weather Stations






























Interactive Weather Map
Tropical Storm Tracking
New forecast layout! Learn more

10-Day Weather Forecast

Advertisements
Track Severe Weather on mobile